Time;durP1;ratioP1;P1;durP2;ratioP2;P2;SDS_P1;SDS_P2;PMS_P1;PMS_P2;Temp;Humidity;BMP_temperature;BMP_pressure;BME280_temperature;BME280_humidity;BME280_pressure;Samples;Min_cycle;Max_cycle;Signal;HPM_P1;HPM_P2
2021/12/10 00:02:16;;;;;;;4.46;1.20;;;;;;;2.61;90.01;97902.66;2296478;66;22109;-75
2021/12/10 00:05:25;;;;;;;8.80;1.60;;;;;;;2.54;89.99;97892.41;2296993;69;20330;-74
2021/12/10 00:08:31;;;;;;;4.91;1.10;;;;;;;2.51;90.31;97875.28;2297769;69;20341;-75
2021/12/10 00:11:40;;;;;;;5.00;1.16;;;;;;;2.52;90.43;97871.91;2293005;69;20219;-74
2021/12/10 00:14:43;;;;;;;4.00;2.04;;;;;;;2.54;90.74;97866.78;2298620;69;20315;-74
2021/12/10 00:17:46;;;;;;;4.21;1.10;;;;;;;2.54;90.93;97856.53;2295979;66;21307;-74
2021/12/10 00:20:56;;;;;;;4.21;1.33;;;;;;;2.56;91.06;97842.88;2299935;69;20789;-75
2021/12/10 00:24:00;;;;;;;5.11;1.10;;;;;;;2.55;91.05;97840.31;2298976;69;20881;-75
2021/12/10 00:27:05;;;;;;;5.94;1.38;;;;;;;2.54;91.11;97831.75;2300189;69;20303;-75
2021/12/10 00:30:13;;;;;;;4.54;1.36;;;;;;;2.55;91.29;97823.22;2297706;69;20316;-75
2021/12/10 00:40:00;;;;;;;6.53;1.64;;;;;;;2.58;91.26;97792.47;2296353;69;20288;-76
2021/12/10 00:43:05;;;;;;;2.72;1.11;;;;;;;2.56;91.28;97788.22;2301103;69;20825;-76
2021/12/10 00:47:03;;;;;;;3.11;1.31;;;;;;;2.54;91.15;97784.81;2293856;67;188377;-75
2021/12/10 00:58:59;;;;;;;6.61;1.70;;;;;;;2.49;91.29;97759.16;2260214;70;20865;-75
2021/12/10 01:02:09;;;;;;;7.55;1.25;;;;;;;2.46;91.23;97754.03;2266462;67;181313;-76
2021/12/10 01:05:17;;;;;;;4.35;1.35;;;;;;;2.43;91.24;97747.19;2265286;70;20802;-76
2021/12/10 01:08:21;;;;;;;7.75;1.50;;;;;;;2.45;91.46;97734.41;2264308;70;20457;-75
2021/12/10 01:11:26;;;;;;;5.05;1.36;;;;;;;2.46;91.59;97727.56;2269245;70;20320;-75
2021/12/10 01:27:31;;;;;;;5.34;1.33;;;;;;;2.34;91.20;97693.44;2304754;69;20222;-75
2021/12/10 08:15:05;;;;;;;2.39;0.99;;;;;;;1.13;92.15;96960.44;2292447;69;20181;-75
2021/12/10 08:30:56;;;;;;;3.06;0.95;;;;;;;1.19;92.70;96945.91;2282967;69;20230;-79
2021/12/10 08:50:00;;;;;;;2.08;0.80;;;;;;;1.20;92.74;96931.44;2303167;69;20307;-76
2021/12/10 09:00:11;;;;;;;1.17;1.02;;;;;;;1.25;92.82;96941.59;2295578;69;20307;-77
2021/12/10 09:06:59;;;;;;;2.83;1.15;;;;;;;1.24;92.92;96935.66;2300278;69;20252;-77
2021/12/10 09:10:42;;;;;;;2.65;0.80;;;;;;;1.26;92.93;96920.31;2291383;69;20291;-77
2021/12/10 09:37:14;;;;;;;1.75;1.41;;;;;;;1.20;92.87;96918.66;2298717;69;20490;-75
2021/12/10 09:40:25;;;;;;;2.17;1.20;;;;;;;1.22;93.02;96904.16;2295765;69;20282;-76
2021/12/10 09:43:31;;;;;;;3.66;1.23;;;;;;;1.25;93.15;96905.81;2301267;69;21293;-76
2021/12/10 09:46:38;;;;;;;3.85;1.11;;;;;;;1.29;93.07;96899.84;2297049;67;255075;-76
2021/12/10 09:49:46;;;;;;;1.60;1.09;;;;;;;1.35;93.13;96904.91;2295883;69;20476;-75
2021/12/10 09:52:51;;;;;;;1.64;1.21;;;;;;;1.38;93.11;96899.75;2302698;69;20741;-75
2021/12/10 09:56:03;;;;;;;1.80;1.13;;;;;;;1.39;93.00;96892.06;2296523;69;20315;-75
2021/12/10 09:59:07;;;;;;;2.75;1.26;;;;;;;1.42;93.02;96899.72;2303096;69;20351;-76
2021/12/10 10:02:12;;;;;;;1.89;1.30;;;;;;;1.42;92.83;96894.59;2299591;66;21396;-75
2021/12/10 10:05:17;;;;;;;1.31;1.02;;;;;;;1.46;93.02;96888.63;2301689;69;21253;-76
2021/12/10 10:08:25;;;;;;;1.50;1.08;;;;;;;1.48;93.00;96892.00;2302155;69;20441;-75
2021/12/10 10:11:31;;;;;;;3.28;1.20;;;;;;;1.48;92.90;96896.28;2301699;69;20306;-75
2021/12/10 10:14:36;;;;;;;0.90;0.90;;;;;;;1.47;93.05;96890.31;2301760;69;20843;-75
2021/12/10 10:17:40;;;;;;;1.23;0.96;;;;;;;1.51;93.06;96886.03;2299911;69;20359;-76
2021/12/10 10:20:50;;;;;;;1.17;0.91;;;;;;;1.53;93.08;96884.28;2301651;69;20833;-75
2021/12/10 10:23:54;;;;;;;1.06;1.03;;;;;;;1.53;93.12;96881.72;2301405;69;20312;-75
2021/12/10 10:27:04;;;;;;;0.95;0.90;;;;;;;1.57;93.29;96877.44;2301557;69;20619;-76
2021/12/10 10:30:14;;;;;;;1.15;1.05;;;;;;;1.63;93.33;96869.72;2299445;69;20307;-75
2021/12/10 10:33:20;;;;;;;1.30;1.20;;;;;;;1.65;93.23;96870.53;2301493;66;21785;-76
2021/12/10 10:36:28;;;;;;;1.30;1.20;;;;;;;1.69;93.25;96873.06;2302238;69;20290;-76
2021/12/10 10:39:35;;;;;;;1.40;1.10;;;;;;;1.71;93.15;96875.59;2301728;69;20314;-76
2021/12/10 10:42:43;;;;;;;1.20;1.10;;;;;;;1.74;93.29;96868.72;2293022;69;20818;-76
2021/12/10 11:03:22;;;;;;;1.31;1.10;;;;;;;1.81;93.21;96865.25;2300788;69;20381;-75
2021/12/10 11:06:36;;;;;;;1.20;1.10;;;;;;;1.78;93.49;96862.72;2301944;69;20318;-75
2021/12/10 11:10:02;;;;;;;1.15;1.05;;;;;;;1.83;93.53;96857.56;2301672;69;20359;-74
2021/12/10 11:17:15;;;;;;;2.10;1.10;;;;;;;1.83;93.64;96855.00;2269748;69;2310581;-73
2021/12/10 11:20:34;;;;;;;1.00;1.00;;;;;;;1.87;93.58;96848.13;2301604;69;20660;-73
2021/12/10 11:23:39;;;;;;;1.84;1.00;;;;;;;1.87;93.64;96853.25;2296562;69;20258;-73
2021/12/10 11:26:53;;;;;;;0.95;0.95;;;;;;;1.89;93.60;96851.53;2300447;69;20326;-72
2021/12/10 11:30:01;;;;;;;1.23;1.00;;;;;;;1.95;93.66;96851.44;2300907;69;20820;-73
2021/12/10 11:33:13;;;;;;;1.11;1.00;;;;;;;1.97;93.63;96845.44;2301439;67;20457;-72
2021/12/10 11:36:23;;;;;;;1.14;1.02;;;;;;;2.01;93.44;96851.41;2301971;69;20157;-73
2021/12/10 11:39:51;;;;;;;1.09;1.00;;;;;;;2.06;93.77;96847.91;2302393;69;20319;-72
2021/12/10 11:43:02;;;;;;;1.06;0.96;;;;;;;2.10;93.61;96849.56;2301613;69;20311;-72
2021/12/10 11:49:19;;;;;;;0.90;0.90;;;;;;;2.21;93.55;96843.47;2301017;69;20781;-73
2021/12/10 11:52:25;;;;;;;0.99;0.99;;;;;;;2.20;93.43;96847.75;2301603;69;20849;-72
2021/12/10 11:55:28;;;;;;;1.04;0.94;;;;;;;2.19;93.43;96842.66;2302732;69;20300;-73
2021/12/10 11:58:30;;;;;;;1.49;1.17;;;;;;;2.13;93.13;96851.22;2301316;69;20290;-73
2021/12/10 12:01:45;;;;;;;1.49;1.00;;;;;;;2.10;93.13;96851.28;2299611;67;23741;-73
2021/12/10 12:04:54;;;;;;;1.15;1.00;;;;;;;2.05;93.17;96853.91;2300799;69;20298;-73
2021/12/10 12:08:00;;;;;;;1.55;1.23;;;;;;;2.09;93.56;96854.69;2302152;69;20307;-73
2021/12/10 12:11:06;;;;;;;1.02;0.95;;;;;;;2.09;93.50;96858.09;2302805;69;20173;-73
2021/12/10 12:14:27;;;;;;;1.99;1.67;;;;;;;2.04;93.34;96862.44;2301566;69;20451;-73
2021/12/10 12:17:32;;;;;;;24.83;17.14;;;;;;;1.99;93.34;96864.22;2300720;67;23635;-74
2021/12/10 12:28:03;;;;;;;8.06;7.21;;;;;;;2.05;93.81;96873.53;2302600;69;20996;-74
2021/12/10 12:31:31;;;;;;;3.95;3.00;;;;;;;2.07;93.92;96877.75;2300286;67;20590;-74
2021/12/10 12:34:34;;;;;;;2.35;2.25;;;;;;;2.18;94.29;96877.63;2301823;69;21415;-74
2021/12/10 12:37:44;;;;;;;2.59;1.59;;;;;;;2.22;94.20;96876.72;2303269;69;20371;-74
2021/12/10 12:41:22;;;;;;;2.40;2.20;;;;;;;2.24;94.08;96880.13;2302442;69;20408;-74
2021/12/10 12:44:35;;;;;;;1.30;1.20;;;;;;;2.30;94.16;96877.47;2302344;69;20391;-74
2021/12/10 12:47:58;;;;;;;3.09;1.25;;;;;;;2.33;93.97;96889.38;2301146;66;21968;-74
2021/12/10 12:51:21;;;;;;;0.86;0.86;;;;;;;2.33;94.07;96891.94;2302933;69;20307;-74
2021/12/10 12:54:24;;;;;;;1.19;0.90;;;;;;;2.35;94.01;96890.25;2303205;69;20456;-74
2021/12/10 12:57:50;;;;;;;0.95;0.90;;;;;;;2.39;94.18;96890.16;2302914;69;20388;-73
2021/12/10 13:01:25;;;;;;;0.94;0.90;;;;;;;2.43;94.17;96890.97;2300361;67;21770;-73
2021/12/10 13:04:36;;;;;;;0.85;0.85;;;;;;;2.47;93.98;96896.91;2302426;69;20379;-73
2021/12/10 13:07:46;;;;;;;2.91;2.15;;;;;;;2.50;94.16;96899.41;2300908;69;20415;-74
2021/12/10 13:11:06;;;;;;;19.29;11.88;;;;;;;2.54;94.20;96901.09;2302087;69;21075;-74
2021/12/10 13:14:17;;;;;;;19.39;12.05;;;;;;;2.56;94.33;96907.88;2302316;69;20701;-74
2021/12/10 13:17:35;;;;;;;10.30;6.69;;;;;;;2.59;94.49;96904.44;2294696;67;25021;-75
2021/12/10 13:20:42;;;;;;;2.50;2.30;;;;;;;2.65;94.50;96918.00;2302882;69;20476;-75
2021/12/10 13:23:45;;;;;;;1.70;1.50;;;;;;;2.67;94.48;96915.41;2299466;69;20267;-75
2021/12/10 13:26:48;;;;;;;1.31;1.21;;;;;;;2.71;94.78;96917.09;2303115;69;20348;-75
2021/12/10 13:29:51;;;;;;;1.64;1.26;;;;;;;2.77;95.02;96916.16;2301487;69;20939;-74
2021/12/10 13:32:54;;;;;;;0.86;0.86;;;;;;;2.83;95.20;96916.91;2299710;67;23315;-74
2021/12/10 13:36:01;;;;;;;0.63;0.63;;;;;;;2.90;95.43;96930.50;2302568;69;20337;-74
2021/12/10 13:39:06;;;;;;;0.50;0.50;;;;;;;2.96;95.58;96933.81;2302012;69;20298;-74
2021/12/10 13:42:16;;;;;;;0.66;0.66;;;;;;;3.05;95.63;96932.81;2301808;69;20309;-74
2021/12/10 13:45:21;;;;;;;0.64;0.50;;;;;;;3.14;95.68;96942.09;2299519;67;22062;-73
2021/12/10 13:48:37;;;;;;;0.40;0.40;;;;;;;3.18;95.57;96936.91;2301978;69;20320;-74
2021/12/10 13:51:54;;;;;;;0.40;0.40;;;;;;;3.26;95.61;96947.91;2302738;69;21149;-74
2021/12/10 13:54:56;;;;;;;0.98;0.40;;;;;;;3.32;95.50;96954.66;2303738;69;20337;-74
2021/12/10 13:58:25;;;;;;;1.21;0.30;;;;;;;3.36;95.50;96958.00;2302282;69;20290;-74
2021/12/10 14:01:37;;;;;;;0.40;0.40;;;;;;;3.41;95.45;96963.91;2300555;67;22026;-74
2021/12/10 14:04:43;;;;;;;0.54;0.30;;;;;;;3.46;95.63;96972.41;2301849;69;20185;-74
2021/12/10 14:07:53;;;;;;;0.51;0.30;;;;;;;3.52;95.66;96977.44;2302418;69;20318;-74
2021/12/10 14:11:12;;;;;;;0.66;0.31;;;;;;;3.54;95.39;96983.38;2303938;69;20427;-74
2021/12/10 14:14:14;;;;;;;0.52;0.43;;;;;;;3.56;95.43;96995.31;2302899;69;20298;-75
2021/12/10 14:17:27;;;;;;;0.41;0.30;;;;;;;3.59;95.22;96986.72;2300345;66;23573;-74
2021/12/10 14:20:54;;;;;;;0.35;0.30;;;;;;;3.67;95.14;97007.16;2303433;69;20357;-74
2021/12/10 14:24:29;;;;;;;0.69;0.55;;;;;;;3.69;94.79;97003.69;2303319;69;20833;-76
2021/12/10 14:28:01;;;;;;;1.41;0.40;;;;;;;3.73;94.69;97014.72;2303402;69;20310;-75
2021/12/10 14:31:36;;;;;;;0.50;0.50;;;;;;;3.77;94.74;97009.56;2301418;67;20906;-74
2021/12/10 14:34:39;;;;;;;0.24;0.24;;;;;;;3.77;94.47;97024.06;2303179;69;20425;-75
2021/12/10 14:38:01;;;;;;;0.80;0.50;;;;;;;3.78;94.56;97031.78;2303420;69;20330;-74
2021/12/10 14:41:28;;;;;;;0.81;0.35;;;;;;;3.81;94.77;97041.16;2303316;69;20330;-75
2021/12/10 14:44:33;;;;;;;0.28;0.28;;;;;;;3.82;94.64;97038.56;2302381;69;21027;-74
2021/12/10 14:47:36;;;;;;;0.47;0.30;;;;;;;3.84;94.66;97043.66;2296783;66;24664;-75
2021/12/10 14:51:09;;;;;;;0.30;0.30;;;;;;;3.85;94.48;97047.91;2302643;69;20424;-75
2021/12/10 14:54:50;;;;;;;0.22;0.22;;;;;;;3.84;94.46;97047.06;2304417;69;20423;-75
2021/12/10 14:58:17;;;;;;;0.40;0.40;;;;;;;3.85;94.44;97061.59;2302391;69;20337;-75
2021/12/10 15:01:49;;;;;;;0.30;0.30;;;;;;;3.84;94.42;97061.63;2301550;66;22031;-75
2021/12/10 15:05:14;;;;;;;0.81;0.45;;;;;;;3.81;94.60;97070.22;2303213;69;20403;-75
2021/12/10 15:08:51;;;;;;;1.61;0.76;;;;;;;3.83;94.69;97075.34;2302775;69;21135;-75
2021/12/10 15:12:14;;;;;;;0.71;0.30;;;;;;;3.84;94.70;97082.16;2302483;69;20400;-75
2021/12/10 15:15:58;;;;;;;1.56;0.40;;;;;;;3.82;94.54;97086.47;2300584;66;22655;-75
2021/12/10 15:19:04;;;;;;;0.99;0.40;;;;;;;3.81;94.63;97098.47;2303298;69;20430;-75
2021/12/10 15:22:19;;;;;;;1.24;0.36;;;;;;;3.82;94.46;97101.88;2302703;69;20323;-75
2021/12/10 15:25:24;;;;;;;1.38;0.50;;;;;;;3.83;94.39;97101.00;2302658;69;20962;-75
2021/12/10 15:28:26;;;;;;;1.21;0.50;;;;;;;3.82;94.15;97107.84;2304307;69;20477;-75
2021/12/10 15:31:29;;;;;;;0.41;0.40;;;;;;;3.86;94.03;97116.34;2301798;66;21090;-76
2021/12/10 15:34:47;;;;;;;1.14;0.60;;;;;;;3.86;93.73;97124.91;2304598;69;20286;-76
2021/12/10 15:37:52;;;;;;;0.64;0.44;;;;;;;3.86;93.59;97127.47;2303501;69;20324;-75
2021/12/10 15:41:01;;;;;;;2.16;0.60;;;;;;;3.88;93.21;97132.56;2298167;69;20970;-75
2021/12/10 15:44:08;;;;;;;1.40;0.46;;;;;;;3.88;93.13;97142.84;2304557;69;20290;-76
2021/12/10 15:47:13;;;;;;;0.98;0.50;;;;;;;3.88;93.21;97142.84;2300451;67;20804;-75
2021/12/10 15:50:21;;;;;;;1.46;0.60;;;;;;;3.87;93.21;97164.25;2303266;69;20358;-75
2021/12/10 15:53:36;;;;;;;1.36;0.50;;;;;;;3.86;93.10;97155.69;2302180;69;20450;-75
2021/12/10 15:57:00;;;;;;;3.00;0.50;;;;;;;3.86;93.14;97172.81;2303384;69;20460;-76
2021/12/10 16:00:16;;;;;;;2.34;0.70;;;;;;;3.85;93.24;97166.00;2297180;69;20328;-75
2021/12/10 16:03:19;;;;;;;2.41;0.80;;;;;;;3.81;93.19;97182.31;2303267;67;24593;-75
2021/12/10 16:06:23;;;;;;;3.28;0.60;;;;;;;3.82;93.32;97189.97;2297420;69;20331;-75
2021/12/10 16:10:16;;;;;;;2.64;0.84;;;;;;;3.82;93.50;97200.25;2294776;69;20339;-75
2021/12/10 16:31:26;;;;;;;2.11;0.90;;;;;;;3.82;92.65;97220.78;2297814;66;115503;-75
2021/12/10 16:46:40;;;;;;;3.36;0.66;;;;;;;3.77;91.77;97237.09;2297997;66;124303;-76
2021/12/10 16:50:39;;;;;;;2.17;0.63;;;;;;;3.77;91.37;97258.50;2301269;69;20349;-76
2021/12/10 16:53:55;;;;;;;3.51;1.19;;;;;;;3.78;91.19;97255.06;2301491;69;20351;-76
2021/12/10 17:06:37;;;;;;;2.44;0.60;;;;;;;3.76;90.67;97285.00;2301448;69;20185;-75
2021/12/10 17:44:41;;;;;;;2.13;0.59;;;;;;;3.86;89.04;97331.97;2280847;69;20332;-77
2021/12/10 18:00:47;;;;;;;2.86;0.70;;;;;;;3.89;88.84;97373.84;2294052;67;20296;-76
2021/12/10 18:09:01;;;;;;;3.35;1.20;;;;;;;3.92;88.23;97385.81;2293372;69;20369;-76
2021/12/10 18:17:08;;;;;;;0.77;0.55;;;;;;;3.98;87.99;97403.72;2298023;66;154383;-77
2021/12/10 18:25:22;;;;;;;2.58;0.43;;;;;;;4.01;87.63;97411.41;2296179;69;20429;-76
2021/12/10 18:37:16;;;;;;;0.84;0.50;;;;;;;4.04;86.84;97446.47;2295657;69;20473;-77
2021/12/10 18:58:53;;;;;;;1.55;0.45;;;;;;;4.03;86.11;97461.00;2275967;69;20325;-77
2021/12/10 19:07:11;;;;;;;2.11;0.50;;;;;;;4.05;86.06;97487.53;2301472;69;20204;-77
2021/12/10 19:14:42;;;;;;;1.55;0.43;;;;;;;4.05;85.63;97487.53;2303373;69;20327;-80
2021/12/10 19:18:20;;;;;;;5.09;0.76;;;;;;;4.04;85.25;97502.94;2303607;67;107687;-78
2021/12/10 19:22:10;;;;;;;3.68;0.68;;;;;;;4.05;85.01;97502.94;2294121;69;20472;-78
2021/12/10 19:34:45;;;;;;;3.19;0.60;;;;;;;3.98;86.09;97537.25;2300742;69;20374;-74
2021/12/10 19:38:03;;;;;;;5.43;0.88;;;;;;;3.92;87.11;97544.97;2300870;69;20293;-75
2021/12/10 19:41:13;;;;;;;;;;;;;;;3.87;87.74;97549.31;2301379;69;20410;-74
2021/12/10 19:44:23;;;;;;;2.47;0.85;;;;;;;3.84;88.09;97557.03;2300235;69;20086;-74
2021/12/10 19:47:32;;;;;;;2.61;0.89;;;;;;;3.78;88.56;97565.63;2299867;66;27415;-74
2021/12/10 19:50:40;;;;;;;2.76;0.80;;;;;;;3.77;88.98;97574.19;2300754;69;20315;-74
2021/12/10 19:53:50;;;;;;;3.39;0.70;;;;;;;3.75;89.50;97572.47;2300814;69;20420;-76
2021/12/10 19:56:58;;;;;;;2.29;0.70;;;;;;;3.74;89.88;97596.44;2301226;69;20976;-74
2021/12/10 20:00:17;;;;;;;3.69;0.60;;;;;;;3.71;90.06;97591.34;2300756;69;20315;-75
2021/12/10 20:03:31;;;;;;;2.91;0.44;;;;;;;3.68;90.19;97604.19;2300318;69;20324;-75
2021/12/10 20:06:42;;;;;;;2.28;0.73;;;;;;;3.66;90.42;97608.47;2298446;69;20304;-75
2021/12/10 20:10:08;;;;;;;2.41;0.61;;;;;;;3.65;90.66;97620.47;2289099;69;20303;-75
2021/12/10 20:13:32;;;;;;;2.63;0.50;;;;;;;3.61;90.89;97621.34;2290276;69;21232;-75
2021/12/10 20:16:54;;;;;;;2.61;0.82;;;;;;;3.59;91.10;97638.44;2256546;69;2051888;-75
2021/12/10 20:20:47;;;;;;;2.74;1.29;;;;;;;3.56;91.29;97636.75;2294562;69;20178;-76
2021/12/10 20:24:55;;;;;;;1.13;0.85;;;;;;;3.52;91.27;97647.03;2298080;69;20348;-76
2021/12/10 20:28:05;;;;;;;5.14;4.64;;;;;;;3.47;91.25;97665.03;2295710;69;20713;-76
2021/12/10 20:32:13;;;;;;;2.21;1.36;;;;;;;3.48;91.32;97666.72;1835280;66;35899536;-76
2021/12/10 20:35:41;;;;;;;1.40;0.77;;;;;;;3.46;91.40;97683.00;2289852;69;20169;-75
2021/12/10 20:38:52;;;;;;;2.26;0.70;;;;;;;3.41;91.44;97693.28;2291426;69;20296;-75
2021/12/10 20:42:03;;;;;;;3.06;1.06;;;;;;;3.39;91.47;97702.66;2293068;69;20364;-75
2021/12/10 20:45:24;;;;;;;0.95;0.50;;;;;;;3.39;91.32;97704.38;2291387;69;20299;-75
2021/12/10 20:48:31;;;;;;;1.02;0.56;;;;;;;3.32;91.21;97714.66;2292050;69;20481;-75
2021/12/10 20:51:57;;;;;;;0.90;0.79;;;;;;;3.31;91.24;97723.22;2291984;69;20371;-75
2021/12/10 20:55:18;;;;;;;0.41;0.41;;;;;;;3.30;91.38;97728.34;2293085;69;20384;-75
2021/12/10 20:58:28;;;;;;;0.36;0.36;;;;;;;3.27;91.15;97738.63;2284799;69;20421;-76
2021/12/10 21:02:07;;;;;;;0.75;0.36;;;;;;;3.23;91.19;97736.91;2292726;66;21739;-75
2021/12/10 21:05:28;;;;;;;0.35;0.30;;;;;;;3.19;91.05;97738.63;2289008;69;20392;-76
2021/12/10 21:08:33;;;;;;;1.31;0.30;;;;;;;3.13;90.71;97753.19;2302571;69;20306;-76
2021/12/10 21:11:59;;;;;;;0.35;0.35;;;;;;;3.10;90.68;97760.88;2301370;69;20967;-74
2021/12/10 21:15:48;;;;;;;0.30;0.30;;;;;;;3.04;90.34;97767.69;2301091;69;20314;-75
2021/12/10 21:19:23;;;;;;;1.51;0.30;;;;;;;3.03;90.21;97781.38;2295034;69;20346;-75
2021/12/10 21:22:33;;;;;;;0.20;0.20;;;;;;;3.02;90.09;97789.94;2300584;69;21335;-75
2021/12/10 21:25:54;;;;;;;0.36;0.32;;;;;;;2.99;90.10;97794.22;2301459;69;20350;-75
2021/12/10 21:29:01;;;;;;;0.26;0.26;;;;;;;2.92;90.11;97806.19;2295983;69;20371;-75
2021/12/10 21:32:17;;;;;;;0.40;0.40;;;;;;;2.94;90.37;97804.47;2300314;67;21640;-76
2021/12/10 21:35:32;;;;;;;0.64;0.64;;;;;;;2.89;90.14;97810.47;2302059;69;20356;-75
2021/12/10 21:38:42;;;;;;;0.40;0.40;;;;;;;2.89;90.17;97821.56;2301337;69;20441;-75
2021/12/10 21:41:46;;;;;;;0.40;0.40;;;;;;;2.87;89.95;97827.53;2301316;69;20416;-75
2021/12/10 21:45:08;;;;;;;0.42;0.40;;;;;;;2.84;90.06;97824.97;2301751;69;20338;-75
2021/12/10 21:48:13;;;;;;;0.57;0.40;;;;;;;2.83;90.45;97820.69;2300997;66;22396;-75
2021/12/10 21:51:31;;;;;;;0.49;0.47;;;;;;;2.80;90.38;97834.34;2301423;69;20287;-75
2021/12/10 21:55:34;;;;;;;1.13;0.47;;;;;;;2.78;90.53;97837.78;2298810;69;20425;-75
2021/12/10 21:58:43;;;;;;;0.60;0.55;;;;;;;2.73;90.75;97842.91;2301181;69;20437;-75
2021/12/10 22:01:50;;;;;;;0.61;0.61;;;;;;;2.74;90.86;97852.31;2297581;69;20294;-75
2021/12/10 22:09:44;;;;;;;0.64;0.64;;;;;;;2.75;90.88;97863.41;2301682;69;20883;-75
2021/12/10 22:13:17;;;;;;;0.74;0.74;;;;;;;2.74;90.90;97870.25;2291440;69;20881;-76
2021/12/10 22:17:30;;;;;;;0.68;0.68;;;;;;;2.75;91.10;97876.22;2298952;69;20974;-76
2021/12/10 22:25:32;;;;;;;1.06;0.96;;;;;;;2.75;91.51;97894.16;2302867;69;20310;-75
2021/12/10 22:33:19;;;;;;;1.74;1.00;;;;;;;2.76;91.87;97917.22;2291698;69;967858;-75
2021/12/10 22:36:46;;;;;;;0.96;0.80;;;;;;;2.77;91.97;97928.31;2302017;69;20944;-75
2021/12/10 22:40:24;;;;;;;1.09;0.70;;;;;;;2.71;92.03;97924.06;2302126;69;20320;-76
2021/12/10 22:43:37;;;;;;;1.56;0.96;;;;;;;2.66;92.04;97934.25;2301173;69;20438;-75
2021/12/10 22:46:46;;;;;;;1.16;1.08;;;;;;;2.64;92.26;97937.69;2300281;67;20918;-75
2021/12/10 22:49:56;;;;;;;0.91;0.90;;;;;;;2.64;92.34;97951.34;2303294;69;20312;-75
2021/12/10 22:53:06;;;;;;;0.98;0.82;;;;;;;2.58;92.46;97953.88;2302228;69;20922;-75
2021/12/10 22:56:15;;;;;;;1.34;0.90;;;;;;;2.59;92.63;97970.97;2302001;69;20686;-75
2021/12/10 22:59:27;;;;;;;1.09;0.77;;;;;;;2.57;92.77;97980.34;2302480;69;20777;-75
2021/12/10 23:03:03;;;;;;;0.70;0.70;;;;;;;2.56;92.87;97977.78;2295848;69;20153;-75
2021/12/10 23:06:13;;;;;;;0.85;0.85;;;;;;;2.56;92.98;97995.72;2302410;69;20309;-75
2021/12/10 23:09:28;;;;;;;1.04;0.90;;;;;;;2.54;92.93;98000.00;2302369;69;20306;-75
2021/12/10 23:12:34;;;;;;;0.95;0.95;;;;;;;2.51;92.91;97999.94;2303399;69;20335;-75
2021/12/10 23:15:46;;;;;;;0.74;0.74;;;;;;;2.50;93.13;98013.59;2302138;67;26296;-75
2021/12/10 23:18:53;;;;;;;0.80;0.80;;;;;;;2.50;93.10;98018.72;2303642;69;20384;-75
2021/12/10 23:21:56;;;;;;;1.09;1.00;;;;;;;2.48;93.01;98028.13;2302881;69;20318;-75
2021/12/10 23:25:06;;;;;;;1.16;1.00;;;;;;;2.45;93.08;98023.84;2303942;69;20385;-75
2021/12/10 23:28:12;;;;;;;1.08;1.08;;;;;;;2.41;93.13;98030.66;2303645;69;20354;-75
2021/12/10 23:31:17;;;;;;;1.15;1.05;;;;;;;2.38;93.14;98035.75;2301915;67;52279;-75
2021/12/10 23:34:21;;;;;;;1.59;1.49;;;;;;;2.34;93.15;98041.72;2304768;69;20348;-75
2021/12/10 23:37:25;;;;;;;1.36;1.26;;;;;;;2.35;93.33;98048.56;2303042;69;20603;-75
2021/12/10 23:40:33;;;;;;;1.36;1.26;;;;;;;2.34;93.23;98054.53;2303517;69;20748;-75
2021/12/10 23:43:47;;;;;;;1.70;1.60;;;;;;;2.33;93.32;98057.06;2303840;69;20298;-75
2021/12/10 23:47:01;;;;;;;1.50;1.40;;;;;;;2.32;93.50;98061.31;2301704;67;21246;-75
2021/12/10 23:50:22;;;;;;;1.79;1.65;;;;;;;2.30;93.56;98065.56;2305897;69;20358;-75
2021/12/10 23:53:35;;;;;;;1.73;1.63;;;;;;;2.28;93.72;98072.41;2304687;69;20371;-75
2021/12/10 23:56:38;;;;;;;2.04;1.81;;;;;;;2.28;93.91;98077.50;2303380;69;20326;-75
2021/12/10 23:59:42;;;;;;;1.90;1.80;;;;;;;2.29;93.91;98093.75;2304799;69;20390;-75
